2020/12/05 18:00 VVNB 051800Z 03002KT CAVOK 13/08 Q1022 NOSIG
2020/12/05 18:00 VVDN 051800Z 33002KT 7000 FEW012 SCT060 20/17 Q1018 NOSIG
2020/12/05 18:00 VVTS 051800Z 02004KT 9999 FEW020 24/19 Q1010 NOSIG
2020/12/05 18:00 VVPB 051800Z 29006KT 7000 SCT013 BKN040 18/17 Q1020 NOSIG

Powered by MinhViet JSC.